Latest Weather Observations for Warburto Point

IDS60801

Issued at 12:05 am CDT Thursday 23 October 2014 (issued every 30 minutes, with the page automatically refreshed every 10 minutes)

About weather observations | Map of weather stations | Latest weather observations for SA | Other Formats
Station Details ID: 022053 Name: WARBURTO POINT Lat: -34.00 Lon: 137.53 Height: 1.0 m
Data from the previous 72 hours. | See also: Recent months for locations in South Australia
Date/Time
CDT
Temp
°C
App
Temp
°C
Dew
Point
Rel
Hum
%
Delta-T
°C
Wind Press
QNH
hPa
Press
MSL
hPa
Rain
since 9 am
mm
Dir
 
Spd
km/h
Gust
km/h
Spd
kts
Gust
kts
23/12:00am - - - - - SSE 17 22 9 12 - - -
 
Date/Time
CDT
Temp
°C
App
Temp
°C
Dew
Point
Rel
Hum
%
Delta-T
°C
Wind Press
QNH
hPa
Press
MSL
hPa
Rain
since 9 am
mm
Dir
 
Spd
km/h
Gust
km/h
Spd
kts
Gust
kts
22/11:30pm - - - - - S 19 24 10 13 - - -
22/11:00pm - - - - - S 19 24 10 13 - - -
22/10:30pm - - - - - SSE 24 32 13 17 - - -
22/10:00pm - - - - - S 33 39 18 21 - - -
22/09:30pm - - - - - S 37 48 20 26 - - -
22/09:00pm - - - - - S 37 46 20 25 - - -
22/08:30pm - - - - - SSW 33 43 18 23 - - -
22/08:00pm - - - - - SSW 37 48 20 26 - - -
22/07:30pm - - - - - SSW 32 41 17 22 - - -
22/07:00pm - - - - - SSW 33 44 18 24 - - -
22/06:30pm - - - - - SW 32 39 17 21 - - -
22/06:00pm - - - - - SW 33 41 18 22 - - -
22/05:30pm - - - - - SW 35 46 19 25 - - -
22/05:00pm - - - - - SW 37 44 20 24 - - -
22/04:30pm - - - - - SW 37 48 20 26 - - -
22/04:00pm - - - - - SW 35 46 19 25 - - -
22/03:30pm - - - - - SW 37 46 20 25 - - -
22/03:00pm - - - - - SW 35 44 19 24 - - -
22/02:30pm - - - - - SW 39 50 21 27 - - -
22/02:00pm - - - - - SW 35 48 19 26 - - -
22/01:30pm - - - - - SW 33 44 18 24 - - -
22/01:00pm - - - - - SW 39 52 21 28 - - -
22/12:30pm - - - - - SW 39 50 21 27 - - -
22/12:00pm - - - - - SW 35 44 19 24 - - -
22/11:30am - - - - - SW 32 43 17 23 - - -
22/11:00am - - - - - SW 32 39 17 21 - - -
22/10:30am - - - - - SW 32 39 17 21 - - -
22/10:00am - - - - - SW 28 35 15 19 - - -
22/09:30am - - - - - SW 26 32 14 17 - - -
22/09:00am - - - - - SSW 26 33 14 18 - - -
22/08:30am - - - - - SSW 20 28 11 15 - - -
22/08:00am - - - - - SSW 20 26 11 14 - - -
22/07:30am - - - - - SSW 22 30 12 16 - - -
22/07:00am - - - - - SSW 20 28 11 15 - - -
22/06:30am - - - - - SW 20 26 11 14 - - -
22/06:00am - - - - - SSW 17 26 9 14 - - -
22/05:30am - - - - - SSW 19 24 10 13 - - -
22/05:00am - - - - - SSW 19 26 10 14 - - -
22/04:30am - - - - - SSW 28 33 15 18 - - -
22/04:00am - - - - - SW 26 32 14 17 - - -
22/03:30am - - - - - ESE 11 15 6 8 - - -
22/03:00am - - - - - S 9 11 5 6 - - -
22/02:30am - - - - - W 9 15 5 8 - - -
22/02:00am - - - - - ESE 11 13 6 7 - - -
22/01:30am - - - - - SE 7 9 4 5 - - -
22/01:00am - - - - - SW 13 20 7 11 - - -
22/12:30am - - - - - E 20 24 11 13 - - -
22/12:00am - - - - - E 20 26 11 14 - - -
 
Date/Time
CDT
Temp
°C
App
Temp
°C
Dew
Point
Rel
Hum
%
Delta-T
°C
Wind Press
QNH
hPa
Press
MSL
hPa
Rain
since 9 am
mm
Dir
 
Spd
km/h
Gust
km/h
Spd
kts
Gust
kts
21/11:30pm - - - - - E 22 26 12 14 - - -
21/11:00pm - - - - - E 20 22 11 12 - - -
21/10:30pm - - - - - E 22 28 12 15 - - -
21/10:00pm - - - - - E 22 26 12 14 - - -
21/09:30pm - - - - - E 19 20 10 11 - - -
21/09:00pm - - - - - E 13 17 7 9 - - -
21/08:30pm - - - - - SE 15 17 8 9 - - -
21/08:00pm - - - - - ESE 9 15 5 8 - - -
21/07:30pm - - - - - SW 13 15 7 8 - - -
21/07:00pm - - - - - W 24 33 13 18 - - -
21/06:30pm - - - - - NE 17 19 9 10 - - -
21/06:00pm - - - - - NNE 19 24 10 13 - - -
21/05:30pm - - - - - NE 17 20 9 11 - - -
21/05:00pm - - - - - NNE 20 26 11 14 - - -
21/04:30pm - - - - - NNE 22 28 12 15 - - -
21/04:00pm - - - - - NNE 17 20 9 11 - - -
21/03:30pm - - - - - NNE 24 28 13 15 - - -
21/03:00pm - - - - - NNE 26 30 14 16 - - -
21/02:30pm - - - - - NNE 24 28 13 15 - - -
21/02:00pm - - - - - NNE 19 24 10 13 - - -
21/01:30pm - - - - - NNE 20 28 11 15 - - -
21/01:00pm - - - - - NNE 22 28 12 15 - - -
21/12:30pm - - - - - N 20 24 11 13 - - -
21/12:00pm - - - - - N 17 20 9 11 - - -
21/11:30am - - - - - N 17 22 9 12 - - -
21/11:00am - - - - - N 22 28 12 15 - - -
21/10:30am - - - - - N 22 30 12 16 - - -
21/10:00am - - - - - NNE 24 28 13 15 - - -
21/09:30am - - - - - NNE 20 26 11 14 - - -
21/09:00am - - - - - NNE 24 30 13 16 - - -
21/08:30am - - - - - NE 17 26 9 14 - - -
21/08:00am - - - - - NE 13 17 7 9 - - -
21/07:30am - - - - - NE 13 15 7 8 - - -
21/07:00am - - - - - NE 15 17 8 9 - - -
21/06:30am - - - - - NE 17 19 9 10 - - -
21/06:00am - - - - - NE 19 20 10 11 - - -
21/05:30am - - - - - NE 17 19 9 10 - - -
21/05:00am - - - - - NNE 17 19 9 10 - - -
21/04:30am - - - - - NE 19 20 10 11 - - -
21/04:00am - - - - - NE 19 20 10 11 - - -
21/03:30am - - - - - NE 17 20 9 11 - - -
21/03:00am - - - - - NE 13 17 7 9 - - -
21/02:30am - - - - - ENE 20 24 11 13 - - -
21/02:00am - - - - - ENE 20 26 11 14 - - -
21/01:30am - - - - - E 24 30 13 16 - - -
21/01:00am - - - - - E 26 32 14 17 - - -
21/12:30am - - - - - E 24 33 13 18 - - -
21/12:00am - - - - - E 28 35 15 19 - - -
 
Date/Time
CDT
Temp
°C
App
Temp
°C
Dew
Point
Rel
Hum
%
Delta-T
°C
Wind Press
QNH
hPa
Press
MSL
hPa
Rain
since 9 am
mm
Dir
 
Spd
km/h
Gust
km/h
Spd
kts
Gust
kts
20/11:30pm - - - - - E 28 35 15 19 - - -
20/11:00pm - - - - - E 28 35 15 19 - - -
20/10:30pm - - - - - E 28 35 15 19 - - -
20/10:00pm - - - - - E 28 35 15 19 - - -
20/09:30pm - - - - - E 28 35 15 19 - - -
20/09:00pm - - - - - ESE 30 35 16 19 - - -
20/08:30pm - - - - - ESE 24 30 13 16 - - -
20/08:00pm - - - - - ESE 28 33 15 18 - - -
20/07:30pm - - - - - ESE 22 28 12 15 - - -
20/07:00pm - - - - - SSE 13 17 7 9 - - -
20/06:30pm - - - - - S 15 19 8 10 - - -
20/06:00pm - - - - - S 15 17 8 9 - - -
20/05:30pm - - - - - S 15 19 8 10 - - -
20/05:00pm - - - - - SSW 13 17 7 9 - - -
20/04:30pm - - - - - SW 11 15 6 8 - - -
20/04:00pm - - - - - WSW 9 11 5 6 - - -
20/03:30pm - - - - - SW 13 15 7 8 - - -
20/03:00pm - - - - - SSW 11 13 6 7 - - -
20/02:30pm - - - - - SSW 13 17 7 9 - - -
20/02:00pm - - - - - SW 13 15 7 8 - - -
20/01:30pm - - - - - WSW 15 19 8 10 - - -
20/01:00pm - - - - - W 17 19 9 10 - - -
20/12:30pm - - - - - W 17 19 9 10 - - -
20/12:00pm - - - - - W 13 15 7 8 - - -
20/11:30am - - - - - W 11 13 6 7 - - -
20/11:00am - - - - - ENE 19 30 10 16 - - -
20/10:30am - - - - - E 15 20 8 11 - - -
20/10:00am - - - - - E 17 22 9 12 - - -
20/09:30am - - - - - E 22 28 12 15 - - -
20/09:00am - - - - - ESE 22 28 12 15 - - -
20/08:30am - - - - - ESE 22 28 12 15 - - -
20/08:00am - - - - - ESE 13 17 7 9 - - -
20/07:30am - - - - - SE 15 19 8 10 - - -
20/07:00am - - - - - SE 15 19 8 10 - - -
20/06:30am - - - - - SE 11 15 6 8 - - -
20/06:00am - - - - - E 6 7 3 4 - - -
20/05:30am - - - - - ESE 11 13 6 7 - - -
20/05:00am - - - - - ESE 11 13 6 7 - - -
20/04:30am - - - - - ESE 13 17 7 9 - - -
20/04:00am - - - - - E 9 9 5 5 - - -
20/03:30am - - - - - NNE 13 15 7 8 - - -
20/03:00am - - - - - NNE 13 19 7 10 - - -
20/02:30am - - - - - E 24 30 13 16 - - -
20/02:00am - - - - - NE 7 11 4 6 - - -
20/01:30am - - - - - ESE 28 37 15 20 - - -
20/01:00am - - - - - ESE 28 35 15 19 - - -
20/12:30am - - - - - ESE 28 33 15 18 - - -

Other Formats:

Comma delimited format used in spreadsheet applications
http://www.bom.gov.au/fwo/IDS60801/IDS60801.94666.axf

JavaScript Object Notation format (JSON) in row-major order
http://www.bom.gov.au/fwo/IDS60801/IDS60801.94666.json